VIR28K EGCC-KJFK
Flight info
| Callsign | VIR28K |
|---|---|
| Flight time | N/A |
| Altitude | 36000 |
| Route | ASMIM L975 WAL L10 PENIL M144 BAGSO DCT TOBOR/M085F380 NATC ELSIR/N0478F380 N402C ALLEX DCT ENE PARCH4 |
| Aircraft | A35K/H-SDE2E3GHIJ3J4J5LM1ORWXY/LB1D1 |
Departure
| Time | 2026-05-06 14:28 |
|---|---|
| Airport | Manchester Airport (EGCC) |
Arrival
| Time | N/A |
|---|---|
| Airport | John F. Kennedy International Airport (KJFK) |
| Time | Latitude | Longitude | Altitude | Speed | Heading |
|---|---|---|---|---|---|
| 2026-05-06 13:55 | 53.36801 | -2.28676 | 263 ft | 0 kts | 315° |
| 2026-05-06 14:12 | 53.36802 | -2.28677 | 261 ft | 0 kts | 315° |
| 2026-05-06 14:12 | 53.36801 | -2.28676 | 261 ft | 0 kts | 314° |
| 2026-05-06 14:12 | 53.36801 | -2.28675 | 261 ft | 0 kts | 314° |
| 2026-05-06 14:12 | 53.36800 | -2.28673 | 261 ft | 0 kts | 314° |
| 2026-05-06 14:13 | 53.36798 | -2.28671 | 261 ft | 0 kts | 314° |
| 2026-05-06 14:13 | 53.36797 | -2.28668 | 261 ft | 0 kts | 314° |
| 2026-05-06 14:13 | 53.36794 | -2.28664 | 261 ft | 1 kts | 314° |
| 2026-05-06 14:13 | 53.36792 | -2.28659 | 261 ft | 1 kts | 314° |
| 2026-05-06 14:14 | 53.36789 | -2.28654 | 262 ft | 1 kts | 314° |
| 2026-05-06 14:14 | 53.36785 | -2.28649 | 263 ft | 1 kts | 314° |
| 2026-05-06 14:14 | 53.36782 | -2.28643 | 264 ft | 1 kts | 314° |
| 2026-05-06 14:14 | 53.36778 | -2.28636 | 261 ft | 1 kts | 314° |
| 2026-05-06 14:15 | 53.36774 | -2.28629 | 262 ft | 1 kts | 314° |
| 2026-05-06 14:15 | 53.36770 | -2.28622 | 263 ft | 1 kts | 315° |
| 2026-05-06 14:15 | 53.36765 | -2.28614 | 265 ft | 1 kts | 315° |
| 2026-05-06 14:15 | 53.36761 | -2.28607 | 265 ft | 1 kts | 311° |
| 2026-05-06 14:16 | 53.36759 | -2.28604 | 265 ft | 0 kts | 306° |
| 2026-05-06 14:16 | 53.36758 | -2.28603 | 265 ft | 0 kts | 306° |
| 2026-05-06 14:16 | 53.36757 | -2.28600 | 264 ft | 0 kts | 305° |
| 2026-05-06 14:16 | 53.36756 | -2.28598 | 265 ft | 0 kts | 303° |
| 2026-05-06 14:17 | 53.36755 | -2.28597 | 265 ft | 0 kts | 303° |
| 2026-05-06 14:17 | 53.36755 | -2.28595 | 265 ft | 0 kts | 303° |
| 2026-05-06 14:17 | 53.36754 | -2.28593 | 265 ft | 0 kts | 303° |
| 2026-05-06 14:18 | 53.36752 | -2.28590 | 265 ft | 0 kts | 302° |
| 2026-05-06 14:18 | 53.36753 | -2.28590 | 265 ft | 0 kts | 301° |
| 2026-05-06 14:19 | 53.36752 | -2.28594 | 265 ft | 0 kts | 283° |
| 2026-05-06 14:19 | 53.36750 | -2.28598 | 264 ft | 0 kts | 259° |
| 2026-05-06 14:19 | 53.36747 | -2.28600 | 265 ft | 0 kts | 236° |
| 2026-05-06 14:20 | 53.36733 | -2.28621 | 263 ft | 6 kts | 223° |
| 2026-05-06 14:20 | 53.36694 | -2.28680 | 261 ft | 9 kts | 223° |
| 2026-05-06 14:20 | 53.36651 | -2.28748 | 261 ft | 9 kts | 221° |
| 2026-05-06 14:20 | 53.36589 | -2.28755 | 261 ft | 10 kts | 155° |
| 2026-05-06 14:21 | 53.36530 | -2.28677 | 261 ft | 12 kts | 136° |
| 2026-05-06 14:21 | 53.36483 | -2.28599 | 261 ft | 11 kts | 135° |
| 2026-05-06 14:21 | 53.36431 | -2.28496 | 261 ft | 12 kts | 123° |
| 2026-05-06 14:21 | 53.36385 | -2.28361 | 261 ft | 14 kts | 126° |
| 2026-05-06 14:22 | 53.36314 | -2.28231 | 261 ft | 16 kts | 135° |
| 2026-05-06 14:22 | 53.36257 | -2.28147 | 261 ft | 4 kts | 161° |
| 2026-05-06 14:22 | 53.36225 | -2.28146 | 261 ft | 6 kts | 188° |
| 2026-05-06 14:22 | 53.36178 | -2.28146 | 261 ft | 8 kts | 169° |
| 2026-05-06 14:23 | 53.36126 | -2.28093 | 261 ft | 10 kts | 140° |
| 2026-05-06 14:23 | 53.36068 | -2.28010 | 261 ft | 12 kts | 140° |
| 2026-05-06 14:23 | 53.35997 | -2.27912 | 261 ft | 13 kts | 141° |
| 2026-05-06 14:23 | 53.35909 | -2.27853 | 261 ft | 15 kts | 173° |
| 2026-05-06 14:24 | 53.35791 | -2.27865 | 255 ft | 20 kts | 187° |
| 2026-05-06 14:24 | 53.35656 | -2.27895 | 248 ft | 13 kts | 195° |
| 2026-05-06 14:24 | 53.35575 | -2.28005 | 243 ft | 18 kts | 229° |
| 2026-05-06 14:24 | 53.35474 | -2.28135 | 240 ft | 18 kts | 201° |
| 2026-05-06 14:25 | 53.35352 | -2.28181 | 240 ft | 19 kts | 195° |
| 2026-05-06 14:25 | 53.35232 | -2.28306 | 238 ft | 21 kts | 226° |
| 2026-05-06 14:25 | 53.35132 | -2.28507 | 235 ft | 24 kts | 231° |
| 2026-05-06 14:25 | 53.35026 | -2.28716 | 238 ft | 24 kts | 227° |
| 2026-05-06 14:26 | 53.34904 | -2.28933 | 231 ft | 27 kts | 226° |
| 2026-05-06 14:26 | 53.34776 | -2.29177 | 227 ft | 26 kts | 230° |
| 2026-05-06 14:26 | 53.34673 | -2.29324 | 223 ft | 17 kts | 200° |
| 2026-05-06 14:26 | 53.34569 | -2.29301 | 226 ft | 15 kts | 140° |
| 2026-05-06 14:27 | 53.34575 | -2.29154 | 227 ft | 14 kts | 56° |
| 2026-05-06 14:27 | 53.34592 | -2.29115 | 228 ft | 0 kts | 52° |
| 2026-05-06 14:27 | 53.34703 | -2.28882 | 227 ft | 68 kts | 51° |
| 2026-05-06 14:27 | 53.35186 | -2.27886 | 242 ft | 153 kts | 51° |
| 2026-05-06 14:28 | 53.35983 | -2.26226 | 629 ft | 200 kts | 51° |
| 2026-05-06 14:28 | 53.36909 | -2.24436 | 1543 ft | 204 kts | 47° |
| 2026-05-06 14:28 | 53.38205 | -2.23340 | 2021 ft | 224 kts | 7° |
| 2026-05-06 14:28 | 53.39774 | -2.23933 | 2420 ft | 246 kts | 328° |
| 2026-05-06 14:29 | 53.40976 | -2.26039 | 2900 ft | 257 kts | 306° |
| 2026-05-06 14:29 | 53.42026 | -2.28498 | 3409 ft | 261 kts | 308° |
| 2026-05-06 14:29 | 53.43148 | -2.30898 | 3939 ft | 262 kts | 311° |
| 2026-05-06 14:29 | 53.44312 | -2.33272 | 4425 ft | 265 kts | 308° |
| 2026-05-06 14:30 | 53.45266 | -2.35907 | 4970 ft | 266 kts | 298° |
| 2026-05-06 14:30 | 53.46106 | -2.38689 | 5483 ft | 267 kts | 297° |
| 2026-05-06 14:30 | 53.46811 | -2.41570 | 6006 ft | 268 kts | 285° |
| 2026-05-06 14:30 | 53.46898 | -2.44657 | 6536 ft | 271 kts | 264° |
| 2026-05-06 14:31 | 53.46581 | -2.47776 | 7022 ft | 273 kts | 260° |
| 2026-05-06 14:31 | 53.46212 | -2.50913 | 7523 ft | 274 kts | 260° |
| 2026-05-06 14:31 | 53.45848 | -2.54066 | 8030 ft | 276 kts | 261° |
| 2026-05-06 14:31 | 53.45491 | -2.57237 | 8561 ft | 277 kts | 261° |
| 2026-05-06 14:32 | 53.45137 | -2.60414 | 9080 ft | 278 kts | 261° |
| 2026-05-06 14:32 | 53.44782 | -2.63612 | 9599 ft | 279 kts | 261° |
| 2026-05-06 14:32 | 53.44428 | -2.66830 | 10132 ft | 282 kts | 261° |
| 2026-05-06 14:32 | 53.44063 | -2.70148 | 10624 ft | 297 kts | 261° |
| 2026-05-06 14:33 | 53.43671 | -2.73649 | 11117 ft | 312 kts | 260° |
| 2026-05-06 14:33 | 53.43258 | -2.77306 | 11607 ft | 326 kts | 260° |
| 2026-05-06 14:33 | 53.42827 | -2.81116 | 12105 ft | 339 kts | 260° |
| 2026-05-06 14:33 | 53.42380 | -2.85078 | 12608 ft | 351 kts | 260° |
| 2026-05-06 14:34 | 53.41919 | -2.89169 | 13126 ft | 361 kts | 260° |
| 2026-05-06 14:34 | 53.41458 | -2.93268 | 13653 ft | 364 kts | 260° |
| 2026-05-06 14:34 | 53.40985 | -2.97448 | 14154 ft | 366 kts | 260° |
| 2026-05-06 14:34 | 53.40508 | -3.01653 | 14640 ft | 368 kts | 260° |
| 2026-05-06 14:35 | 53.40073 | -3.05888 | 15136 ft | 369 kts | 264° |
| 2026-05-06 14:35 | 53.39987 | -3.10189 | 15632 ft | 370 kts | 274° |
| 2026-05-06 14:35 | 53.40410 | -3.14439 | 16151 ft | 372 kts | 286° |
| 2026-05-06 14:35 | 53.41397 | -3.18453 | 16672 ft | 374 kts | 298° |
| 2026-05-06 14:36 | 53.42744 | -3.22190 | 17205 ft | 377 kts | 302° |
| 2026-05-06 14:36 | 53.44245 | -3.25841 | 17742 ft | 380 kts | 304° |
| 2026-05-06 14:36 | 53.45810 | -3.29434 | 18292 ft | 383 kts | 305° |
| 2026-05-06 14:36 | 53.47403 | -3.33040 | 18787 ft | 386 kts | 305° |
| 2026-05-06 14:37 | 53.49000 | -3.36675 | 19247 ft | 388 kts | 305° |
| 2026-05-06 14:37 | 53.50597 | -3.40358 | 19761 ft | 391 kts | 304° |
| 2026-05-06 14:37 | 53.52190 | -3.44077 | 20257 ft | 393 kts | 304° |
| 2026-05-06 14:37 | 53.53784 | -3.47836 | 20769 ft | 396 kts | 304° |
| 2026-05-06 14:38 | 53.55382 | -3.51623 | 21287 ft | 399 kts | 304° |
| 2026-05-06 14:38 | 53.56991 | -3.55450 | 21816 ft | 402 kts | 304° |
| 2026-05-06 14:38 | 53.58608 | -3.59303 | 22346 ft | 405 kts | 304° |
| 2026-05-06 14:38 | 53.60067 | -3.63281 | 22883 ft | 407 kts | 296° |
| 2026-05-06 14:39 | 53.61163 | -3.67680 | 23460 ft | 408 kts | 287° |
| 2026-05-06 14:39 | 53.61774 | -3.72349 | 23955 ft | 411 kts | 278° |
| 2026-05-06 14:39 | 53.62116 | -3.77146 | 24422 ft | 414 kts | 275° |
| 2026-05-06 14:39 | 53.62346 | -3.82000 | 24906 ft | 418 kts | 274° |
| 2026-05-06 14:40 | 53.62525 | -3.86905 | 25398 ft | 421 kts | 273° |
| 2026-05-06 14:40 | 53.62688 | -3.91846 | 25900 ft | 423 kts | 273° |
| 2026-05-06 14:40 | 53.62857 | -3.96820 | 26409 ft | 426 kts | 274° |
| 2026-05-06 14:40 | 53.63038 | -4.01815 | 26937 ft | 428 kts | 274° |
| 2026-05-06 14:41 | 53.63224 | -4.06825 | 27451 ft | 430 kts | 274° |
| 2026-05-06 14:41 | 53.63415 | -4.11860 | 28006 ft | 431 kts | 274° |
| 2026-05-06 14:41 | 53.63608 | -4.16914 | 28552 ft | 432 kts | 274° |
| 2026-05-06 14:41 | 53.63799 | -4.21966 | 29118 ft | 432 kts | 274° |
| 2026-05-06 14:42 | 53.63990 | -4.27025 | 29709 ft | 432 kts | 274° |
| 2026-05-06 14:42 | 53.64178 | -4.32082 | 30241 ft | 431 kts | 274° |
| 2026-05-06 14:42 | 53.64369 | -4.37108 | 30756 ft | 429 kts | 274° |
| 2026-05-06 14:42 | 53.64550 | -4.42055 | 31253 ft | 428 kts | 274° |
| 2026-05-06 14:43 | 53.64729 | -4.47041 | 31766 ft | 425 kts | 274° |
| 2026-05-06 14:43 | 53.64908 | -4.51999 | 32288 ft | 422 kts | 274° |
| 2026-05-06 14:43 | 53.65080 | -4.56919 | 32828 ft | 418 kts | 274° |
| 2026-05-06 14:43 | 53.65247 | -4.61797 | 33373 ft | 414 kts | 274° |
| 2026-05-06 14:44 | 53.65410 | -4.66605 | 33931 ft | 409 kts | 275° |
| 2026-05-06 14:44 | 53.65568 | -4.71342 | 34418 ft | 402 kts | 275° |
| 2026-05-06 14:44 | 53.65724 | -4.76017 | 34894 ft | 395 kts | 275° |
| 2026-05-06 14:45 | 53.66026 | -4.85083 | 35812 ft | 381 kts | 275° |
| 2026-05-06 14:45 | 53.66178 | -4.89542 | 35961 ft | 382 kts | 275° |
| 2026-05-06 14:45 | 53.66326 | -4.93982 | 35973 ft | 386 kts | 274° |
| 2026-05-06 14:46 | 53.66619 | -5.03131 | 35978 ft | 395 kts | 274° |
| 2026-05-06 14:46 | 53.66909 | -5.12515 | 35973 ft | 405 kts | 274° |
| 2026-05-06 14:47 | 53.67200 | -5.22135 | 35957 ft | 416 kts | 274° |
| 2026-05-06 14:47 | 53.67480 | -5.32008 | 35971 ft | 427 kts | 274° |
| 2026-05-06 14:48 | 53.67760 | -5.42145 | 35961 ft | 438 kts | 274° |
| 2026-05-06 14:48 | 53.67707 | -5.52572 | 35965 ft | 452 kts | 265° |
| 2026-05-06 14:49 | 53.66926 | -5.63236 | 35959 ft | 464 kts | 264° |
| 2026-05-06 14:49 | 53.65998 | -5.74148 | 35962 ft | 475 kts | 263° |
| 2026-05-06 14:50 | 53.65043 | -5.85165 | 35961 ft | 475 kts | 263° |
| 2026-05-06 14:50 | 53.64095 | -5.96167 | 35955 ft | 474 kts | 263° |
| 2026-05-06 14:51 | 53.63145 | -6.07175 | 35949 ft | 474 kts | 263° |
| 2026-05-06 14:51 | 53.62194 | -6.18097 | 35957 ft | 474 kts | 263° |
| 2026-05-06 14:52 | 53.61220 | -6.29159 | 35937 ft | 475 kts | 263° |
| 2026-05-06 14:52 | 53.60244 | -6.40119 | 35931 ft | 476 kts | 263° |
| 2026-05-06 14:53 | 53.59250 | -6.51153 | 35927 ft | 476 kts | 263° |
| 2026-05-06 14:53 | 53.58247 | -6.62171 | 35922 ft | 476 kts | 263° |
| 2026-05-06 14:54 | 53.57234 | -6.73191 | 35918 ft | 476 kts | 263° |
| 2026-05-06 14:54 | 53.56209 | -6.84217 | 35918 ft | 478 kts | 263° |
| 2026-05-06 14:55 | 53.55187 | -6.95279 | 35915 ft | 478 kts | 264° |
| 2026-05-06 14:55 | 53.54158 | -7.06319 | 35916 ft | 478 kts | 263° |
| 2026-05-06 14:56 | 53.53112 | -7.17300 | 35915 ft | 478 kts | 263° |
| 2026-05-06 14:56 | 53.52039 | -7.28373 | 35924 ft | 479 kts | 263° |
| 2026-05-06 14:57 | 53.50957 | -7.39439 | 35916 ft | 480 kts | 263° |
| 2026-05-06 14:57 | 53.49864 | -7.50515 | 35916 ft | 481 kts | 263° |
| 2026-05-06 14:58 | 53.48759 | -7.61591 | 35916 ft | 481 kts | 263° |
| 2026-05-06 14:58 | 53.47650 | -7.72607 | 35920 ft | 481 kts | 263° |
| 2026-05-06 14:59 | 53.46523 | -7.83687 | 35919 ft | 482 kts | 263° |
| 2026-05-06 14:59 | 53.45386 | -7.94770 | 35920 ft | 482 kts | 263° |
| 2026-05-06 15:00 | 53.44429 | -8.04010 | 35916 ft | 482 kts | 263° |
| 2026-05-06 15:00 | 53.43271 | -8.15094 | 35927 ft | 482 kts | 263° |
| 2026-05-06 15:01 | 53.42103 | -8.26172 | 35928 ft | 482 kts | 263° |
| 2026-05-06 15:01 | 53.40924 | -8.37253 | 35925 ft | 483 kts | 263° |
| 2026-05-06 15:02 | 53.39734 | -8.48338 | 35928 ft | 483 kts | 263° |
| 2026-05-06 15:02 | 53.38533 | -8.59416 | 35928 ft | 483 kts | 263° |
| 2026-05-06 15:03 | 53.37322 | -8.70480 | 35933 ft | 483 kts | 262° |
| 2026-05-06 15:03 | 53.36108 | -8.81486 | 35932 ft | 484 kts | 263° |
| 2026-05-06 15:04 | 53.34875 | -8.92556 | 35936 ft | 484 kts | 262° |
| 2026-05-06 15:04 | 53.33633 | -9.03613 | 35935 ft | 484 kts | 262° |
| 2026-05-06 15:05 | 53.32380 | -9.14684 | 35939 ft | 484 kts | 262° |
| 2026-05-06 15:05 | 53.31749 | -9.25811 | 35940 ft | 478 kts | 274° |
| 2026-05-06 15:06 | 53.32159 | -9.36883 | 35952 ft | 477 kts | 277° |
| 2026-05-06 15:06 | 53.32571 | -9.47971 | 35951 ft | 478 kts | 275° |
| 2026-05-06 15:07 | 53.32745 | -9.59094 | 35955 ft | 478 kts | 274° |
| 2026-05-06 15:07 | 53.32854 | -9.70158 | 35955 ft | 479 kts | 274° |
| 2026-05-06 15:08 | 53.32961 | -9.81299 | 35951 ft | 479 kts | 274° |
| 2026-05-06 15:08 | 53.33068 | -9.92456 | 35964 ft | 479 kts | 274° |
| 2026-05-06 15:09 | 53.33170 | -10.03574 | 35963 ft | 477 kts | 274° |
| 2026-05-06 15:09 | 53.33260 | -10.14670 | 35964 ft | 477 kts | 274° |
| 2026-05-06 15:10 | 53.33339 | -10.25691 | 35962 ft | 477 kts | 274° |
| 2026-05-06 15:10 | 53.33408 | -10.36785 | 35959 ft | 477 kts | 274° |
| 2026-05-06 15:11 | 53.33467 | -10.47885 | 35962 ft | 477 kts | 274° |
| 2026-05-06 15:11 | 53.33516 | -10.58994 | 35963 ft | 477 kts | 273° |
| 2026-05-06 15:12 | 53.33555 | -10.70099 | 35964 ft | 477 kts | 273° |
| 2026-05-06 15:12 | 53.33583 | -10.81198 | 35963 ft | 477 kts | 273° |
| 2026-05-06 15:13 | 53.33601 | -10.92246 | 35964 ft | 477 kts | 273° |
| 2026-05-06 15:13 | 53.33608 | -11.03355 | 35963 ft | 477 kts | 273° |
| 2026-05-06 15:14 | 53.33606 | -11.14466 | 35963 ft | 477 kts | 273° |
| 2026-05-06 15:14 | 53.33592 | -11.25577 | 35963 ft | 477 kts | 273° |
| 2026-05-06 15:15 | 53.33569 | -11.36693 | 35948 ft | 477 kts | 272° |
| 2026-05-06 15:15 | 53.33536 | -11.47800 | 35963 ft | 477 kts | 272° |
| 2026-05-06 15:16 | 53.33492 | -11.58840 | 35964 ft | 477 kts | 272° |
| 2026-05-06 15:16 | 53.33438 | -11.69939 | 35963 ft | 477 kts | 272° |
| 2026-05-06 15:17 | 53.33373 | -11.81056 | 35962 ft | 477 kts | 272° |
| 2026-05-06 15:17 | 53.33298 | -11.92154 | 35956 ft | 477 kts | 272° |
| 2026-05-06 15:18 | 53.33213 | -12.03247 | 36006 ft | 477 kts | 272° |
| 2026-05-06 15:18 | 53.33118 | -12.14339 | 36019 ft | 477 kts | 272° |
| 2026-05-06 15:19 | 53.33012 | -12.25430 | 36019 ft | 477 kts | 272° |
| 2026-05-06 15:19 | 53.32896 | -12.36528 | 36019 ft | 477 kts | 272° |
| 2026-05-06 15:20 | 53.32770 | -12.47644 | 36026 ft | 477 kts | 271° |
| 2026-05-06 15:20 | 53.32634 | -12.58661 | 36024 ft | 477 kts | 271° |
| 2026-05-06 15:21 | 53.32487 | -12.69763 | 36015 ft | 476 kts | 271° |
| 2026-05-06 15:21 | 53.32330 | -12.80802 | 36014 ft | 474 kts | 271° |
| 2026-05-06 15:22 | 53.32164 | -12.91815 | 36022 ft | 474 kts | 271° |
| 2026-05-06 15:22 | 53.31988 | -13.02845 | 36019 ft | 474 kts | 271° |
| 2026-05-06 15:23 | 53.31802 | -13.13862 | 36013 ft | 474 kts | 271° |
| 2026-05-06 15:23 | 53.31605 | -13.24885 | 36010 ft | 474 kts | 271° |
| 2026-05-06 15:24 | 53.31399 | -13.35829 | 36019 ft | 474 kts | 271° |
| 2026-05-06 15:24 | 53.31183 | -13.46842 | 36011 ft | 474 kts | 270° |
| 2026-05-06 15:25 | 53.30956 | -13.57850 | 36018 ft | 473 kts | 270° |
| 2026-05-06 15:25 | 53.30719 | -13.68842 | 36022 ft | 473 kts | 270° |
| 2026-05-06 15:26 | 53.30472 | -13.79828 | 36020 ft | 473 kts | 270° |
| 2026-05-06 15:26 | 53.30217 | -13.90741 | 36020 ft | 473 kts | 270° |
| 2026-05-06 15:27 | 53.29952 | -14.01683 | 36047 ft | 477 kts | 270° |
| 2026-05-06 15:27 | 53.29673 | -14.12744 | 36018 ft | 474 kts | 270° |
| 2026-05-06 15:28 | 53.29386 | -14.23687 | 36013 ft | 474 kts | 270° |
| 2026-05-06 15:28 | 53.29089 | -14.34680 | 36012 ft | 473 kts | 269° |
| 2026-05-06 15:29 | 53.28781 | -14.45679 | 36013 ft | 474 kts | 269° |
| 2026-05-06 15:29 | 53.28463 | -14.56675 | 36012 ft | 473 kts | 269° |
| 2026-05-06 15:30 | 53.28136 | -14.67657 | 36012 ft | 473 kts | 269° |
| 2026-05-06 15:30 | 53.27797 | -14.78654 | 36016 ft | 473 kts | 269° |
| 2026-05-06 15:31 | 53.27450 | -14.89629 | 36011 ft | 473 kts | 269° |
| 2026-05-06 15:31 | 53.27094 | -15.00545 | 36009 ft | 473 kts | 269° |
| 2026-05-06 15:32 | 53.26538 | -15.17025 | 36010 ft | 473 kts | 269° |
| 2026-05-06 15:32 | 53.26154 | -15.28006 | 36009 ft | 474 kts | 268° |
| 2026-05-06 15:33 | 53.25761 | -15.38976 | 36005 ft | 472 kts | 268° |
| 2026-05-06 15:33 | 53.25359 | -15.49905 | 36008 ft | 471 kts | 268° |
| 2026-05-06 15:34 | 53.24950 | -15.60772 | 36002 ft | 471 kts | 268° |
| 2026-05-06 15:34 | 53.24529 | -15.71687 | 36006 ft | 471 kts | 268° |
| 2026-05-06 15:35 | 53.24098 | -15.82590 | 36007 ft | 471 kts | 268° |
| 2026-05-06 15:35 | 53.23656 | -15.93508 | 36008 ft | 471 kts | 268° |
| 2026-05-06 15:36 | 53.23205 | -16.04416 | 36007 ft | 471 kts | 267° |
| 2026-05-06 15:36 | 53.22744 | -16.15328 | 36006 ft | 471 kts | 267° |
| 2026-05-06 15:37 | 53.22273 | -16.26235 | 36004 ft | 471 kts | 267° |
| 2026-05-06 15:37 | 53.21791 | -16.37160 | 36001 ft | 471 kts | 267° |
| 2026-05-06 15:38 | 53.21299 | -16.48066 | 36001 ft | 471 kts | 267° |
| 2026-05-06 15:38 | 53.20798 | -16.58966 | 35996 ft | 471 kts | 266° |
| 2026-05-06 15:39 | 53.20291 | -16.69783 | 36001 ft | 471 kts | 266° |
| 2026-05-06 15:39 | 53.19769 | -16.80697 | 35998 ft | 471 kts | 266° |
| 2026-05-06 15:40 | 53.19238 | -16.91584 | 35999 ft | 471 kts | 266° |
| 2026-05-06 15:40 | 53.18697 | -17.02477 | 36000 ft | 471 kts | 266° |
| 2026-05-06 15:41 | 53.18151 | -17.13285 | 36000 ft | 471 kts | 266° |
| 2026-05-06 15:41 | 53.17590 | -17.24190 | 36002 ft | 471 kts | 266° |
| 2026-05-06 15:42 | 53.17019 | -17.35074 | 36002 ft | 471 kts | 265° |
| 2026-05-06 15:42 | 53.16438 | -17.45962 | 35999 ft | 471 kts | 265° |
| 2026-05-06 15:43 | 53.15849 | -17.56807 | 35999 ft | 471 kts | 265° |
| 2026-05-06 15:43 | 53.15248 | -17.67709 | 35999 ft | 471 kts | 265° |
| 2026-05-06 15:44 | 53.15134 | -17.69740 | 35998 ft | 469 kts | 265° |
| 2026-05-06 15:44 | 53.14526 | -17.80539 | 36004 ft | 471 kts | 265° |
| 2026-05-06 15:45 | 53.13905 | -17.91395 | 36005 ft | 471 kts | 265° |
| 2026-05-06 15:45 | 53.13272 | -18.02269 | 35998 ft | 470 kts | 264° |
| 2026-05-06 15:46 | 53.12910 | -18.08415 | 35998 ft | 470 kts | 264° |